Terminal Aerodrome Forecast
Issued by NWS

Home | Current Version | Previous Version | Text Only | Print | Product List | Glossary On
Versions: 1 2 3 4 5 6 7 8 9 10 11 12 13 14 15 16 17 18 19 20
000
FTUS46 KSEW 211700
TAFPAE
TAF
KPAE 211730Z 2118/2218 25003KT P6SM FEW100
     FM212000 22009KT P6SM SCT150
     FM220400 17006KT P6SM SCT100
     FM220900 17006KT 5SM BR OVC007=

USA.gov is the U.S. government's official web portal to all federal, state and local government web resources and services.